Time;durP1;ratioP1;P1;durP2;ratioP2;P2;SDS_P1;SDS_P2;PMS_P1;PMS_P2;Temp;Humidity;BMP_temperature;BMP_pressure;BME280_temperature;BME280_humidity;BME280_pressure;Samples;Min_cycle;Max_cycle;Signal;HPM_P1;HPM_P2
2022/04/08 00:01:59;;;;;;;7.97;4.00;;;;;;;14.32;51.41;98518.84;5387275;32;34048;-77
2022/04/08 00:05:01;;;;;;;9.13;4.03;;;;;;;14.54;50.99;98515.25;5382919;32;35658;-70
2022/04/08 00:08:04;;;;;;;9.57;4.47;;;;;;;14.67;51.06;98515.06;5397583;32;34439;-74
2022/04/08 00:11:06;;;;;;;7.62;3.85;;;;;;;14.71;50.87;98530.53;5413710;32;34695;-75
2022/04/08 00:14:08;;;;;;;8.10;3.97;;;;;;;14.72;50.94;98541.94;5395958;32;34294;-77
2022/04/08 00:17:10;;;;;;;8.48;4.30;;;;;;;13.85;53.22;98523.66;5410050;32;35565;-78
2022/04/08 00:20:13;;;;;;;7.12;3.70;;;;;;;14.21;52.21;98547.97;5370228;32;35471;-76
2022/04/08 00:23:16;;;;;;;7.57;4.00;;;;;;;14.50;51.65;98558.81;5425055;32;33805;-74
2022/04/08 00:26:18;;;;;;;7.87;3.60;;;;;;;15.40;48.52;98535.13;5401628;32;34434;-75
2022/04/08 00:29:20;;;;;;;8.15;3.83;;;;;;;15.40;48.73;98532.50;5395542;32;34307;-76
2022/04/08 00:32:24;;;;;;;8.03;3.80;;;;;;;14.96;49.83;98534.56;5416753;32;46049;-72
2022/04/08 00:35:27;;;;;;;6.87;3.30;;;;;;;14.69;50.61;98550.16;5397279;32;34627;-77
2022/04/08 00:38:29;;;;;;;7.53;3.63;;;;;;;14.97;49.59;98557.38;5419939;32;33081;-73
2022/04/08 00:41:31;;;;;;;8.77;3.77;;;;;;;14.89;49.96;98563.34;5394512;32;35044;-75
2022/04/08 00:44:33;;;;;;;7.97;3.80;;;;;;;14.68;50.46;98564.31;5385196;32;35387;-72
2022/04/08 00:47:37;;;;;;;7.23;3.63;;;;;;;14.70;50.76;98551.81;5398914;32;34573;-75
2022/04/08 00:50:39;;;;;;;;;;;;;;;15.00;49.95;98551.81;5389075;32;34617;-77
2022/04/08 00:53:44;;;;;;;6.27;3.40;;;;;;;15.58;48.33;98541.41;5423328;32;34851;-71
2022/04/08 00:56:46;;;;;;;10.07;3.97;;;;;;;15.25;48.87;98560.28;5372337;32;36162;-73
2022/04/08 00:59:49;;;;;;;6.17;3.20;;;;;;;14.71;50.43;98564.06;5406408;32;34760;-77
2022/04/08 01:02:51;;;;;;;10.75;4.32;;;;;;;14.54;51.02;98562.84;5375514;32;46656;-77
2022/04/08 01:05:54;;;;;;;10.57;3.67;;;;;;;14.58;51.12;98569.56;5378528;32;35162;-71
2022/04/08 01:08:56;;;;;;;9.03;3.50;;;;;;;14.73;50.61;98556.84;5396244;32;34152;-75
2022/04/08 01:11:59;;;;;;;9.48;4.03;;;;;;;14.56;51.02;98561.75;5380108;32;34397;-72
2022/04/08 01:15:01;;;;;;;9.10;4.27;;;;;;;14.41;51.69;98556.88;5407028;32;34217;-75
2022/04/08 01:18:05;;;;;;;9.57;5.03;;;;;;;13.60;53.95;98561.75;5401342;32;35115;-76
2022/04/08 01:21:08;;;;;;;9.13;4.47;;;;;;;14.01;53.46;98573.41;5420480;32;34802;-76
2022/04/08 01:24:14;;;;;;;11.10;5.07;;;;;;;13.85;53.69;98571.19;5412173;32;35372;-76
2022/04/08 01:27:19;;;;;;;8.20;4.03;;;;;;;15.05;50.12;98573.44;5382303;32;33972;-71
2022/04/08 01:30:21;;;;;;;12.93;5.63;;;;;;;14.59;51.00;98572.06;5409644;32;45568;-71
2022/04/08 01:33:24;;;;;;;8.33;4.37;;;;;;;15.23;49.43;98597.47;5413844;32;35523;-72
2022/04/08 01:36:26;;;;;;;7.87;3.70;;;;;;;14.56;51.01;98600.59;5405252;32;34545;-71
2022/04/08 01:39:28;;;;;;;8.97;4.00;;;;;;;15.09;49.85;98611.06;5396749;32;34613;-76
2022/04/08 01:42:30;;;;;;;9.83;4.53;;;;;;;14.97;49.99;98605.00;5398134;32;34201;-73
2022/04/08 01:45:32;;;;;;;8.40;3.90;;;;;;;15.14;49.44;98612.34;5396365;32;35011;-76
2022/04/08 01:48:35;;;;;;;7.20;3.60;;;;;;;15.30;49.38;98619.78;5386823;32;33700;-73
2022/04/08 01:51:37;;;;;;;8.17;4.07;;;;;;;15.12;49.65;98638.06;5407806;32;35216;-76
2022/04/08 01:54:39;;;;;;;8.60;3.93;;;;;;;15.00;50.19;98646.22;5399560;32;35441;-72
2022/04/08 01:57:42;;;;;;;9.23;4.30;;;;;;;15.27;49.36;98645.69;5394048;32;35214;-76
2022/04/08 02:00:44;;;;;;;8.95;4.20;;;;;;;14.97;50.50;98655.28;5393421;32;34628;-73
2022/04/08 02:03:46;;;;;;;9.07;3.97;;;;;;;15.41;49.00;98642.69;5392347;32;35155;-72
2022/04/08 02:06:49;;;;;;;8.53;4.00;;;;;;;15.11;49.89;98641.69;5400394;32;35905;-76
2022/04/08 02:09:51;;;;;;;7.60;3.87;;;;;;;15.85;47.74;98641.50;5398170;32;43224;-75
2022/04/08 02:12:53;;;;;;;8.37;3.87;;;;;;;16.10;46.71;98655.19;5405093;32;34302;-75
2022/04/08 02:15:56;;;;;;;8.63;3.77;;;;;;;15.40;48.28;98654.25;5374532;32;35208;-76
2022/04/08 02:18:58;;;;;;;9.40;3.80;;;;;;;15.00;48.88;98673.50;5397368;32;33760;-72
2022/04/08 02:22:00;;;;;;;8.53;3.60;;;;;;;14.39;50.48;98680.41;5402596;32;34742;-72
2022/04/08 02:25:03;;;;;;;4.87;3.13;;;;;;;14.51;50.33;98690.84;5393917;32;35276;-72
2022/04/08 02:28:06;;;;;;;8.70;3.65;;;;;;;14.87;49.14;98691.38;5402328;32;34590;-75
2022/04/08 02:31:08;;;;;;;8.50;3.70;;;;;;;14.29;50.86;98675.84;5393792;32;34432;-73
2022/04/08 02:34:10;;;;;;;7.40;3.13;;;;;;;14.88;48.91;98667.47;5402480;32;34498;-77
2022/04/08 02:37:12;;;;;;;8.17;3.33;;;;;;;15.93;46.29;98641.63;5398640;32;34525;-73
2022/04/08 02:40:14;;;;;;;5.60;3.37;;;;;;;16.21;45.12;98647.13;5409414;32;35442;-77
2022/04/08 02:43:17;;;;;;;6.17;3.10;;;;;;;15.99;45.21;98664.09;5381604;32;36186;-73
2022/04/08 02:46:19;;;;;;;6.47;4.03;;;;;;;15.27;47.12;98672.16;5395171;32;34720;-77
2022/04/08 02:49:21;;;;;;;6.22;3.33;;;;;;;16.09;45.34;98683.50;5402996;32;43658;-73
2022/04/08 02:52:23;;;;;;;6.83;3.70;;;;;;;15.08;47.80;98688.75;5395003;32;35613;-77
2022/04/08 02:55:25;;;;;;;9.03;3.90;;;;;;;14.78;48.44;98694.81;5393713;32;34626;-72
2022/04/08 02:58:28;;;;;;;23.00;5.20;;;;;;;15.86;45.97;98712.03;5387624;32;34895;-72
2022/04/08 03:01:30;;;;;;;6.20;3.07;;;;;;;15.32;47.24;98725.53;5394101;32;36422;-76
2022/04/08 03:04:32;;;;;;;5.17;2.87;;;;;;;15.14;46.14;98734.06;5383007;32;35657;-72
2022/04/08 03:07:34;;;;;;;4.17;2.23;;;;;;;15.54;45.32;98745.72;5406695;32;35040;-77
2022/04/08 03:10:37;;;;;;;7.10;2.35;;;;;;;15.77;44.54;98754.38;5381329;32;34572;-72
2022/04/08 03:13:39;;;;;;;4.47;2.10;;;;;;;15.27;45.59;98755.06;5397401;32;34932;-76
2022/04/08 03:16:41;;;;;;;5.03;1.70;;;;;;;14.28;48.47;98773.75;5404108;32;35543;-76
2022/04/08 03:19:43;;;;;;;10.17;2.80;;;;;;;15.21;46.34;98770.59;5394426;32;34351;-71
2022/04/08 03:22:45;;;;;;;6.93;1.80;;;;;;;15.23;46.45;98766.00;5412615;32;35288;-72
2022/04/08 03:25:47;;;;;;;5.17;1.40;;;;;;;15.12;46.66;98772.19;5390196;32;34825;-76
2022/04/08 03:28:50;;;;;;;3.03;1.40;;;;;;;14.65;47.78;98786.69;5406040;32;35578;-72
2022/04/08 03:31:52;;;;;;;9.40;2.27;;;;;;;14.56;48.31;98793.56;5410477;32;44838;-77
2022/04/08 03:34:57;;;;;;;3.15;1.12;;;;;;;14.68;48.46;98803.13;5397029;32;35253;-76
2022/04/08 03:38:00;;;;;;;10.67;1.50;;;;;;;14.46;49.27;98808.44;5413012;32;34803;-77
2022/04/08 03:41:02;;;;;;;10.85;2.03;;;;;;;14.24;50.51;98804.03;5381686;32;34705;-72
2022/04/08 03:44:05;;;;;;;3.10;1.10;;;;;;;14.08;51.22;98820.25;5410274;32;35076;-72
2022/04/08 03:47:07;;;;;;;4.60;1.10;;;;;;;14.22;51.05;98835.84;5396432;32;35883;-76
2022/04/08 03:50:09;;;;;;;8.63;1.10;;;;;;;14.62;50.65;98843.31;5384008;32;34672;-77
2022/04/08 03:53:12;;;;;;;1.20;0.80;;;;;;;14.56;51.42;98862.31;5394965;32;35432;-72
2022/04/08 03:56:14;;;;;;;1.50;0.60;;;;;;;13.38;55.55;98871.34;5393007;32;34872;-72
2022/04/08 03:59:17;;;;;;;4.30;0.67;;;;;;;14.26;54.06;98878.75;5408333;32;37058;-75
2022/04/08 04:02:20;;;;;;;2.30;0.70;;;;;;;14.19;54.63;98888.09;5389285;32;33694;-77
2022/04/08 04:05:22;;;;;;;2.12;0.90;;;;;;;13.72;56.86;98876.75;5404311;32;44531;-72
2022/04/08 04:08:24;;;;;;;7.50;1.33;;;;;;;13.66;57.09;98875.41;5389907;32;155076;-76
2022/04/08 04:11:26;;;;;;;2.60;0.80;;;;;;;14.00;55.95;98863.09;5399671;32;34788;-76
2022/04/08 04:14:29;;;;;;;0.93;0.70;;;;;;;13.34;57.79;98888.37;5402273;32;34852;-72
2022/04/08 04:17:31;;;;;;;3.30;1.03;;;;;;;14.01;55.86;98846.28;5392821;32;36586;-76
2022/04/08 04:20:34;;;;;;;7.57;0.90;;;;;;;13.55;57.11;98864.81;5404286;32;33191;-76
2022/04/08 04:23:36;;;;;;;1.23;0.60;;;;;;;13.57;53.75;98851.50;5387116;32;34403;-76
2022/04/08 04:26:38;;;;;;;1.57;0.70;;;;;;;13.48;54.06;98874.16;5410865;32;35359;-72
2022/04/08 04:29:40;;;;;;;2.80;0.60;;;;;;;13.74;50.64;98867.75;5394255;32;35876;-77
2022/04/08 04:32:42;;;;;;;3.73;0.87;;;;;;;13.64;50.48;98873.84;5399345;32;36410;-74
2022/04/08 04:35:45;;;;;;;1.03;0.77;;;;;;;13.89;49.39;98870.16;5387786;32;34662;-75
2022/04/08 04:38:47;;;;;;;5.63;1.00;;;;;;;13.75;48.58;98858.88;5396836;32;33861;-76
2022/04/08 04:41:49;;;;;;;3.07;0.90;;;;;;;13.85;47.90;98848.44;5401487;32;34470;-73
2022/04/08 04:44:52;;;;;;;5.22;1.08;;;;;;;13.50;48.35;98851.97;5394879;32;44380;-73
2022/04/08 04:47:55;;;;;;;2.83;0.75;;;;;;;14.07;45.66;98853.75;5410654;32;35911;-73
2022/04/08 04:50:57;;;;;;;2.33;0.60;;;;;;;13.34;45.87;98846.16;5388019;32;34596;-76
2022/04/08 04:53:59;;;;;;;2.43;0.90;;;;;;;13.66;44.18;98837.63;5395303;32;34014;-72
2022/04/08 04:57:01;;;;;;;3.37;0.80;;;;;;;13.10;44.57;98855.88;5387874;32;35278;-77
2022/04/08 05:00:05;;;;;;;7.73;1.10;;;;;;;13.92;42.65;98849.66;5404160;32;36712;-73
2022/04/08 05:03:08;;;;;;;1.90;0.70;;;;;;;13.94;42.30;98860.94;5413044;32;34116;-72
2022/04/08 05:06:11;;;;;;;4.00;0.88;;;;;;;13.11;44.94;98866.28;5397905;32;35239;-72
2022/04/08 05:09:13;;;;;;;2.17;0.83;;;;;;;12.81;45.65;98879.91;5420816;32;34085;-72
2022/04/08 05:12:15;;;;;;;12.13;1.20;;;;;;;13.26;44.43;98901.28;5400103;32;35457;-72
2022/04/08 05:15:17;;;;;;;1.93;0.80;;;;;;;12.88;41.62;98875.03;5404189;32;36631;-77
2022/04/08 05:18:20;;;;;;;1.23;0.70;;;;;;;13.61;39.53;98882.00;5424500;32;35339;-72
2022/04/08 05:21:22;;;;;;;1.53;0.73;;;;;;;13.33;39.00;98892.00;5406846;32;44758;-72
2022/04/08 05:24:24;;;;;;;2.00;1.00;;;;;;;13.34;38.32;98882.28;5410590;32;34336;-72
2022/04/08 05:27:27;;;;;;;2.10;0.80;;;;;;;13.16;38.76;98864.16;5396046;32;34571;-76
2022/04/08 05:30:34;;;;;;;5.20;1.13;;;;;;;13.61;39.16;98892.56;5387492;32;34084;-73
2022/04/08 05:33:36;;;;;;;3.20;1.00;;;;;;;13.09;39.38;98904.31;5407383;32;33972;-76
2022/04/08 05:36:38;;;;;;;3.63;0.83;;;;;;;13.35;39.48;98881.31;5404633;32;35466;-71
2022/04/08 05:39:40;;;;;;;2.60;1.20;;;;;;;13.73;37.53;98899.56;5414249;32;34255;-76
2022/04/08 05:42:49;;;;;;;2.60;1.27;;;;;;;13.42;38.22;98917.69;5382974;32;35908;-73
2022/04/08 05:45:52;;;;;;;3.07;0.80;;;;;;;13.40;39.64;98940.72;5415369;32;44346;-72
2022/04/08 05:48:54;;;;;;;3.00;0.85;;;;;;;13.81;38.32;98940.25;5406095;32;35394;-77
2022/04/08 05:51:57;;;;;;;6.27;1.27;;;;;;;13.54;37.53;98944.97;5403305;32;34280;-78
2022/04/08 05:55:00;;;;;;;4.15;1.17;;;;;;;12.91;38.20;98965.31;5401576;32;33651;-75
2022/04/08 05:58:02;;;;;;;4.60;1.13;;;;;;;13.24;37.21;98955.97;5378477;32;34042;-74
2022/04/08 06:01:04;;;;;;;5.03;1.00;;;;;;;13.13;37.56;98953.22;5418043;32;34032;-77
2022/04/08 06:04:06;;;;;;;5.20;1.50;;;;;;;13.74;35.47;98954.03;5405021;32;35515;-76
2022/04/08 06:07:09;;;;;;;7.73;1.77;;;;;;;13.60;35.95;98965.63;5420999;32;33908;-74
2022/04/08 06:10:11;;;;;;;5.87;1.27;;;;;;;14.06;36.26;98976.22;5409842;32;33952;-76
2022/04/08 06:13:16;;;;;;;4.05;0.90;;;;;;;13.72;35.67;98990.28;5406548;32;34086;-84
2022/04/08 06:16:23;;;;;;;12.37;1.30;;;;;;;13.47;35.90;99007.09;5397169;32;35343;-74
2022/04/08 06:19:25;;;;;;;3.40;1.10;;;;;;;13.54;36.50;99010.97;5406408;32;44447;-76
2022/04/08 06:22:28;;;;;;;8.80;1.20;;;;;;;13.37;34.03;99017.44;5406894;32;33814;-79
2022/04/08 06:25:30;;;;;;;7.13;1.43;;;;;;;13.46;33.58;99023.84;5389218;32;33223;-75
2022/04/08 06:28:32;;;;;;;3.50;0.90;;;;;;;13.18;34.22;99035.53;5418812;32;34306;-76
2022/04/08 06:31:35;;;;;;;5.95;1.00;;;;;;;14.03;32.65;99021.34;5412367;32;36133;-81
2022/04/08 06:34:37;;;;;;;4.62;0.82;;;;;;;13.73;32.71;99035.06;5416611;32;33616;-75
2022/04/08 06:37:40;;;;;;;5.10;1.20;;;;;;;13.56;33.24;99027.50;5426563;32;34280;-73
2022/04/08 06:40:42;;;;;;;5.80;1.20;;;;;;;13.72;33.39;99035.19;5413906;32;34364;-74
2022/04/08 06:43:44;;;;;;;3.07;0.80;;;;;;;13.52;33.12;99053.31;5406472;32;33997;-77
2022/04/08 06:46:47;;;;;;;6.87;0.95;;;;;;;14.02;31.98;99053.19;5373455;32;34913;-82
2022/04/08 06:49:50;;;;;;;4.80;1.20;;;;;;;13.84;31.99;99028.97;5384332;32;33923;-77
2022/04/08 06:52:55;;;;;;;4.03;1.15;;;;;;;13.93;31.59;99048.59;5394325;32;46326;-81
2022/04/08 06:55:57;;;;;;;4.53;1.10;;;;;;;14.19;30.55;99062.50;5390469;32;35334;-74
2022/04/08 06:59:00;;;;;;;2.83;1.10;;;;;;;14.10;31.49;99064.00;5409396;32;34345;-72
2022/04/08 07:02:03;;;;;;;2.37;0.87;;;;;;;13.93;31.66;99075.00;5409457;32;35528;-72
2022/04/08 07:05:06;;;;;;;4.50;1.00;;;;;;;13.66;31.73;99080.50;5418289;32;34004;-71
2022/04/08 07:08:08;;;;;;;1.73;0.70;;;;;;;14.67;30.31;99065.03;5400475;32;34080;-71
2022/04/08 07:11:14;;;;;;;5.53;1.40;;;;;;;14.14;31.44;99080.50;5420031;32;34268;-73
2022/04/08 07:14:16;;;;;;;5.65;1.20;;;;;;;14.58;30.63;99071.87;5381819;32;35786;-71
2022/04/08 07:17:29;;;;;;;5.40;1.10;;;;;;;14.15;31.81;99095.38;5401281;32;34099;-71
2022/04/08 07:20:48;;;;;;;6.50;1.23;;;;;;;14.54;31.23;99092.41;5411309;32;34353;-72
2022/04/08 07:23:50;;;;;;;7.60;1.70;;;;;;;14.46;31.56;99080.72;5393072;32;36193;-78
2022/04/08 07:26:54;;;;;;;9.60;1.70;;;;;;;15.15;30.75;99081.56;5427210;32;45077;-74
2022/04/08 07:29:56;;;;;;;2.00;1.03;;;;;;;15.16;30.95;99110.56;5385950;32;34133;-73
2022/04/08 07:33:05;;;;;;;5.07;1.60;;;;;;;15.50;29.75;99118.47;5398633;32;34141;-76
2022/04/08 07:36:08;;;;;;;2.45;1.00;;;;;;;15.27;30.40;99124.75;5396144;32;32730;-77
2022/04/08 07:39:10;;;;;;;5.60;1.30;;;;;;;15.49;30.13;99124.75;5399469;32;35229;-79
2022/04/08 07:42:12;;;;;;;3.40;0.90;;;;;;;15.24;30.22;99131.13;5417428;32;34167;-78
2022/04/08 07:45:15;;;;;;;5.20;1.87;;;;;;;15.40;28.96;99126.31;5411524;32;35644;-71
2022/04/08 07:48:20;;;;;;;7.97;1.90;;;;;;;15.52;29.13;99121.88;5410071;32;34620;-71
2022/04/08 07:51:22;;;;;;;9.00;1.30;;;;;;;15.27;29.24;99122.97;5412362;32;45623;-72
2022/04/08 07:54:24;;;;;;;6.35;2.12;;;;;;;15.67;28.63;99120.66;5409436;32;35460;-74
2022/04/08 07:57:27;;;;;;;6.25;1.37;;;;;;;16.37;27.86;99137.09;5402461;32;34308;-71
2022/04/08 08:00:29;;;;;;;3.87;1.23;;;;;;;16.13;27.23;99132.84;5387519;32;34063;-73
2022/04/08 08:03:34;;;;;;;3.43;1.10;;;;;;;15.38;27.59;99128.22;5408129;32;33991;-73
2022/04/08 08:06:36;;;;;;;5.13;1.17;;;;;;;15.12;27.85;99127.62;5401555;32;35539;-80
2022/04/08 08:09:39;;;;;;;6.03;1.03;;;;;;;16.04;26.40;99144.19;5400195;32;35368;-82
2022/04/08 08:12:57;;;;;;;5.60;1.93;;;;;;;16.13;25.92;99132.84;5417824;32;42927;-80
2022/04/08 08:15:59;;;;;;;8.03;0.97;;;;;;;15.18;27.42;99128.94;5388538;32;36637;-81
2022/04/08 08:19:01;;;;;;;2.67;1.10;;;;;;;16.00;26.40;99124.19;5419203;32;34246;-80
2022/04/08 08:22:04;;;;;;;5.63;1.70;;;;;;;16.15;26.28;99132.69;5412046;32;35461;-69
2022/04/08 08:25:06;;;;;;;2.03;0.97;;;;;;;15.55;27.33;99139.31;5411323;32;34008;-75
2022/04/08 08:28:08;;;;;;;7.60;1.33;;;;;;;16.53;25.57;99142.78;5400124;32;34014;-85
2022/04/08 08:31:10;;;;;;;3.90;0.97;;;;;;;15.87;26.45;99157.97;5389377;32;35408;-80
2022/04/08 08:34:13;;;;;;;8.07;1.65;;;;;;;16.27;25.71;99197.12;5405191;32;34171;-73
2022/04/08 08:37:19;;;;;;;2.27;0.93;;;;;;;15.65;25.71;99195.94;5406890;32;36228;-69
2022/04/08 08:40:22;;;;;;;5.03;1.00;;;;;;;15.13;26.80;99202.56;5396869;32;43859;-72
2022/04/08 08:43:24;;;;;;;9.02;1.90;;;;;;;16.22;25.70;99201.00;5391331;32;34302;-73
2022/04/08 08:46:26;;;;;;;3.93;1.10;;;;;;;15.55;26.60;99197.56;5404869;32;34103;-71
2022/04/08 08:49:31;;;;;;;3.55;0.90;;;;;;;16.99;24.78;99184.06;5399527;32;33960;-72
2022/04/08 08:52:33;;;;;;;3.67;1.10;;;;;;;17.01;23.98;99209.53;5393235;32;34163;-78
2022/04/08 08:55:36;;;;;;;2.33;1.00;;;;;;;17.45;23.70;99222.63;5401159;32;35782;-71
2022/04/08 08:58:38;;;;;;;2.33;0.77;;;;;;;17.33;23.86;99224.53;5395080;32;35239;-70
2022/04/08 09:01:41;;;;;;;3.67;1.13;;;;;;;17.11;23.44;99211.41;5420532;32;32989;-72
2022/04/08 09:04:43;;;;;;;5.25;1.15;;;;;;;16.44;23.61;99210.72;5412259;32;34073;-71
2022/04/08 09:08:15;;;;;;;3.50;1.00;;;;;;;17.11;22.74;99214.03;5419046;32;34233;-70
2022/04/08 09:11:24;;;;;;;5.23;1.10;;;;;;;17.09;22.88;99237.22;5414177;32;34820;-71
2022/04/08 09:14:28;;;;;;;4.03;1.40;;;;;;;16.66;23.71;99236.31;5409379;32;44987;-70
2022/04/08 09:17:30;;;;;;;3.37;0.87;;;;;;;16.06;23.90;99248.28;5419270;32;34687;-72
2022/04/08 09:20:44;;;;;;;11.68;0.98;;;;;;;16.91;23.01;99244.91;5399774;32;35058;-72
2022/04/08 09:23:46;;;;;;;3.17;1.30;;;;;;;16.40;23.47;99241.09;5422204;32;35632;-72
2022/04/08 09:26:51;;;;;;;4.47;1.07;;;;;;;16.73;23.33;99228.72;5410070;32;35130;-72
2022/04/08 09:29:55;;;;;;;4.07;1.20;;;;;;;16.96;23.03;99234.78;5409250;32;44345;-71
2022/04/08 09:33:12;;;;;;;3.83;0.97;;;;;;;16.95;22.96;99233.09;5411462;32;34045;-72
2022/04/08 09:36:26;;;;;;;3.97;0.90;;;;;;;18.45;21.30;99239.53;5410483;32;35933;-73
2022/04/08 09:39:28;;;;;;;;;;;;;;;18.74;20.71;99255.56;5411751;32;44482;-70
2022/04/08 09:42:41;;;;;;;7.40;1.67;;;;;;;18.14;21.15;99247.56;5410411;32;35998;-78
2022/04/08 09:45:44;;;;;;;0.68;0.62;;;;;;;19.51;20.17;99253.78;5410566;32;35351;-72
2022/04/08 09:48:47;;;;;;;3.47;0.90;;;;;;;18.63;21.26;99258.31;5409681;32;36992;-71
2022/04/08 09:51:51;;;;;;;4.40;1.55;;;;;;;19.71;20.56;99250.12;5394657;32;34188;-73
2022/04/08 09:54:53;;;;;;;2.53;1.00;;;;;;;20.82;19.11;99239.25;5410133;32;46763;-83
2022/04/08 09:58:01;;;;;;;10.15;1.35;;;;;;;19.51;19.91;99248.44;5380998;32;34678;-78
2022/04/08 10:01:04;;;;;;;2.53;0.70;;;;;;;19.95;19.81;99242.44;5413156;32;35562;-76
2022/04/08 10:04:07;;;;;;;5.80;1.00;;;;;;;21.17;18.73;99220.66;5417317;32;35822;-70
2022/04/08 10:07:10;;;;;;;3.08;1.10;;;;;;;22.06;17.87;99226.53;5410034;32;34113;-70
2022/04/08 10:10:51;;;;;;;1.50;0.98;;;;;;;21.48;18.42;99215.72;5419002;32;35186;-76
2022/04/08 10:14:12;;;;;;;1.80;0.85;;;;;;;20.89;19.50;99235.97;5392833;32;35312;-84
2022/04/08 10:17:14;;;;;;;6.90;1.12;;;;;;;22.15;18.28;99240.81;5412461;32;34033;-69
2022/04/08 10:20:20;;;;;;;7.50;1.42;;;;;;;20.54;19.72;99249.16;5404467;32;32408;-70
2022/04/08 10:23:37;;;;;;;3.55;0.95;;;;;;;19.93;20.29;99236.41;5394519;32;45054;-76
2022/04/08 10:27:09;;;;;;;3.30;0.85;;;;;;;19.41;21.04;99257.31;5416765;32;33204;-72
2022/04/08 10:30:19;;;;;;;4.37;1.40;;;;;;;19.08;21.40;99260.47;5407776;32;34074;-67
2022/04/08 10:33:26;;;;;;;3.07;0.93;;;;;;;18.24;21.99;99246.78;5412978;32;44556;-67
2022/04/08 10:36:37;;;;;;;1.50;1.10;;;;;;;18.26;22.04;99247.47;5407622;32;35651;-70
2022/04/08 10:39:42;;;;;;;2.43;1.17;;;;;;;18.23;21.83;99242.44;5387937;32;32552;-70
2022/04/08 10:42:55;;;;;;;2.17;0.80;;;;;;;17.79;22.47;99245.34;5421765;32;33987;-69
2022/04/08 10:45:58;;;;;;;;;;;;;;;18.38;21.77;99255.19;5411567;32;45351;-69
2022/04/08 10:49:01;;;;;;;4.25;1.10;;;;;;;17.54;21.88;99246.59;5411996;32;34363;-70
2022/04/08 10:52:14;;;;;;;4.68;1.00;;;;;;;17.54;22.05;99248.41;5421376;32;35380;-80
2022/04/08 10:55:17;;;;;;;3.53;1.10;;;;;;;17.40;22.55;99246.94;5405799;32;34150;-82
2022/04/08 10:58:33;;;;;;;2.30;0.60;;;;;;;17.35;22.76;99250.97;5405971;32;35734;-81
2022/04/08 11:01:46;;;;;;;3.17;0.87;;;;;;;17.70;22.67;99239.94;5407187;32;34284;-80
2022/04/08 11:04:48;;;;;;;4.47;0.90;;;;;;;18.10;22.25;99240.03;5409662;32;35241;-66
2022/04/08 11:07:53;;;;;;;3.30;1.07;;;;;;;17.71;23.03;99249.59;5414677;32;34088;-78
2022/04/08 11:10:59;;;;;;;5.93;1.20;;;;;;;18.28;22.42;99246.34;5405811;32;44428;-80
2022/04/08 11:14:02;;;;;;;6.87;1.30;;;;;;;18.59;22.37;99240.94;5425599;32;34171;-72
2022/04/08 11:17:05;;;;;;;3.50;1.10;;;;;;;17.73;23.67;99237.91;5401013;32;35341;-70
2022/04/08 11:20:10;;;;;;;3.10;0.97;;;;;;;18.35;22.82;99238.66;5417969;32;36539;-74
2022/04/08 11:23:12;;;;;;;6.87;1.20;;;;;;;17.82;23.78;99241.56;5389261;32;35361;-70
2022/04/08 11:26:14;;;;;;;2.73;0.90;;;;;;;18.07;23.68;99250.91;5399382;32;35354;-68
2022/04/08 11:29:18;;;;;;;4.37;1.00;;;;;;;17.10;25.18;99253.03;5425594;32;36851;-80
2022/04/08 11:32:30;;;;;;;4.10;1.07;;;;;;;17.06;25.42;99251.59;5402232;32;34213;-82
2022/04/08 11:35:32;;;;;;;9.63;1.30;;;;;;;17.09;25.33;99253.16;5421966;32;35361;-82
2022/04/08 11:38:35;;;;;;;6.25;1.50;;;;;;;17.97;24.43;99261.53;5399720;32;34125;-83
2022/04/08 11:41:59;;;;;;;4.07;1.17;;;;;;;17.56;24.93;99252.63;5403276;32;45005;-86
2022/04/08 11:45:04;;;;;;;4.23;0.87;;;;;;;17.93;25.10;99243.31;5410315;32;35658;-69
2022/04/08 11:48:06;;;;;;;2.63;1.50;;;;;;;18.04;24.92;99244.06;5384851;32;34203;-69
2022/04/08 11:51:09;;;;;;;2.75;1.05;;;;;;;17.73;25.65;99242.38;5423322;32;34251;-68
2022/04/08 11:54:12;;;;;;;4.50;1.48;;;;;;;17.09;26.68;99250.50;5406495;32;33979;-77
2022/04/08 11:57:14;;;;;;;5.25;1.02;;;;;;;17.66;26.22;99242.06;5386426;32;35509;-76
2022/04/08 12:00:18;;;;;;;5.28;1.20;;;;;;;17.61;26.46;99241.59;5388896;32;34290;-69
2022/04/08 12:03:30;;;;;;;2.93;1.07;;;;;;;17.77;26.64;99235.81;5390375;32;33282;-68
2022/04/08 12:06:42;;;;;;;5.97;1.40;;;;;;;18.08;26.26;99240.13;5423427;32;34256;-71
2022/04/08 12:09:44;;;;;;;3.30;1.30;;;;;;;18.17;26.07;99227.03;5409322;32;34234;-69
2022/04/08 12:12:47;;;;;;;4.73;1.43;;;;;;;18.81;25.27;99237.22;5402525;32;36627;-76
2022/04/08 12:15:52;;;;;;;5.75;1.30;;;;;;;18.74;25.42;99231.63;5400041;32;34324;-76
2022/04/08 12:18:55;;;;;;;2.47;1.17;;;;;;;18.51;25.94;99224.84;5380688;32;47180;-77
2022/04/08 12:22:18;;;;;;;13.23;4.87;;;;;;;18.66;25.85;99223.44;5405719;32;34489;-68
2022/04/08 12:25:21;;;;;;;2.85;1.20;;;;;;;19.25;25.43;99221.59;5408832;32;35686;-69
2022/04/08 12:28:29;;;;;;;;;;;;;;;21.63;22.41;99193.59;5401939;32;44315;-77
2022/04/08 12:31:32;;;;;;;6.80;1.40;;;;;;;19.78;24.94;99192.56;5398193;32;34374;-78
2022/04/08 12:34:34;;;;;;;3.35;1.40;;;;;;;21.28;23.08;99201.72;5425421;32;34290;-68
2022/04/08 12:37:36;;;;;;;4.87;1.60;;;;;;;20.18;24.54;99186.88;5411395;32;35372;-71
2022/04/08 12:40:39;;;;;;;4.50;1.58;;;;;;;20.01;24.97;99182.34;5398956;32;34269;-69
2022/04/08 12:43:41;;;;;;;5.20;1.30;;;;;;;21.48;23.25;99173.78;5412536;32;34285;-77
2022/04/08 12:46:43;;;;;;;3.87;1.65;;;;;;;19.96;25.36;99171.28;5395922;32;34235;-69
2022/04/08 12:49:45;;;;;;;3.83;1.15;;;;;;;21.49;23.40;99163.94;5426088;32;35451;-76
2022/04/08 12:52:48;;;;;;;6.10;1.83;;;;;;;21.01;23.74;99142.09;5410621;32;35668;-77
2022/04/08 12:55:50;;;;;;;4.75;1.48;;;;;;;20.32;24.81;99136.66;5406748;32;35911;-68
2022/04/08 12:58:53;;;;;;;5.40;1.42;;;;;;;21.30;23.90;99130.25;5408183;32;44223;-68
2022/04/08 13:01:55;;;;;;;5.83;1.30;;;;;;;21.99;23.04;99141.75;5392149;32;35528;-69
2022/04/08 13:04:58;;;;;;;;;;;;;;;21.16;24.06;99142.34;5418410;32;35278;-69
2022/04/08 13:08:00;;;;;;;6.07;1.10;;;;;;;20.20;25.61;99147.53;5405429;32;36983;-77
2022/04/08 13:11:02;;;;;;;3.90;1.40;;;;;;;21.12;24.49;99145.47;5419329;32;34092;-68
2022/04/08 13:14:04;;;;;;;4.85;1.40;;;;;;;20.28;25.61;99141.44;5387066;32;34342;-69
2022/04/08 13:17:07;;;;;;;3.33;1.20;;;;;;;20.16;25.97;99134.69;5414270;32;35222;-76
2022/04/08 13:20:10;;;;;;;4.32;1.27;;;;;;;20.66;25.39;99121.62;5388451;32;35008;-68
2022/04/08 13:23:12;;;;;;;5.95;1.50;;;;;;;20.86;25.25;99119.59;5412277;32;35384;-76
2022/04/08 13:26:14;;;;;;;3.92;1.20;;;;;;;20.73;25.46;99113.84;5422203;32;35628;-69
2022/04/08 13:29:16;;;;;;;5.63;1.37;;;;;;;20.80;25.41;99106.88;5414079;32;35294;-76
2022/04/08 13:32:19;;;;;;;3.10;1.30;;;;;;;21.09;25.11;99093.22;5413724;32;34098;-68
2022/04/08 13:35:21;;;;;;;7.10;2.37;;;;;;;20.71;25.79;99092.63;5414264;32;44656;-75
2022/04/08 13:38:26;;;;;;;3.08;1.30;;;;;;;19.43;27.85;99086.66;5420760;32;35216;-67
2022/04/08 13:41:29;;;;;;;3.17;1.50;;;;;;;20.66;26.03;99078.06;5412332;32;34321;-77
2022/04/08 13:44:33;;;;;;;;;;;;;;;20.90;25.87;99064.06;5402383;32;34796;-68
2022/04/08 13:47:35;;;;;;;4.05;1.40;;;;;;;20.70;25.91;99069.59;5424914;32;35539;-67
2022/04/08 13:50:37;;;;;;;5.18;1.27;;;;;;;20.19;26.57;99078.34;5392058;32;34315;-68
2022/04/08 13:53:39;;;;;;;4.00;1.48;;;;;;;20.01;26.93;99081.00;5417376;32;34826;-67
2022/04/08 13:56:41;;;;;;;2.75;1.10;;;;;;;19.54;27.62;99077.63;5389386;32;34146;-68
2022/04/08 13:59:44;;;;;;;5.28;1.25;;;;;;;19.05;28.47;99074.34;5415977;32;35941;-69
2022/04/08 14:02:46;;;;;;;3.33;1.92;;;;;;;19.12;28.72;99078.91;5414184;32;35358;-76
2022/04/08 14:05:49;;;;;;;7.97;1.33;;;;;;;19.60;27.87;99066.41;5393843;32;34233;-76
2022/04/08 14:08:52;;;;;;;3.72;1.27;;;;;;;19.22;28.13;99070.91;5426024;32;35621;-69
2022/04/08 14:11:54;;;;;;;2.87;1.40;;;;;;;18.52;29.33;99061.56;5398058;32;34253;-78
2022/04/08 14:14:57;;;;;;;3.08;1.30;;;;;;;18.35;29.69;99040.03;5419935;32;34157;-67
2022/04/08 14:18:17;;;;;;;6.60;1.90;;;;;;;17.91;30.37;99048.56;5410100;32;35728;-75
2022/04/08 14:21:19;;;;;;;5.43;1.65;;;;;;;17.75;30.61;99049.94;5395329;32;35797;-76
2022/04/08 14:24:21;;;;;;;6.40;1.70;;;;;;;18.96;28.85;99024.63;5428287;32;34594;-69
2022/04/08 14:27:23;;;;;;;5.35;2.20;;;;;;;18.09;30.43;99025.59;5403061;32;34178;-76